createdAt,value
2022-09-18T00:00:49.974Z,10.21
2022-09-18T00:03:54.222Z,10.39
2022-09-18T00:06:56.258Z,10.36
2022-09-18T00:09:58.288Z,10.35
2022-09-18T00:13:00.443Z,10.30
2022-09-18T00:16:02.869Z,10.11
2022-09-18T00:19:05.536Z,10.31
2022-09-18T00:22:07.592Z,10.30
2022-09-18T00:25:09.804Z,10.20
2022-09-18T00:28:11.827Z,10.16
2022-09-18T00:31:20.487Z,9.97
2022-09-18T00:34:22.603Z,9.95
2022-09-18T00:37:24.668Z,10.01
2022-09-18T00:40:26.839Z,9.83
2022-09-18T00:43:32.685Z,9.81
2022-09-18T00:46:36.200Z,9.81
2022-09-18T00:49:49.420Z,9.87
2022-09-18T00:53:02.053Z,9.82
2022-09-18T00:56:04.215Z,9.63
2022-09-18T00:59:06.271Z,9.59
2022-09-18T01:02:08.566Z,9.76
2022-09-18T01:05:10.857Z,9.64
2022-09-18T01:09:00.151Z,9.58
2022-09-18T01:12:26.122Z,9.84
2022-09-18T01:15:41.469Z,9.84
2022-09-18T01:19:10.761Z,10.10
2022-09-18T01:22:44.040Z,10.05
2022-09-18T01:26:33.047Z,9.98
2022-09-18T01:29:52.071Z,9.96
2022-09-18T01:33:00.961Z,10.04
2022-09-18T01:36:07.623Z,10.01
2022-09-18T01:39:39.942Z,10.07
2022-09-18T01:42:43.298Z,10.08
2022-09-18T01:45:47.898Z,10.25
2022-09-18T01:48:58.418Z,10.11
2022-09-18T01:52:28.021Z,10.04
2022-09-18T01:55:30.264Z,10.17
2022-09-18T01:58:33.565Z,10.20
2022-09-18T02:01:36.089Z,10.21
2022-09-18T02:04:39.135Z,10.07
2022-09-18T02:08:11.693Z,10.19
2022-09-18T02:11:15.216Z,10.10
2022-09-18T02:14:30.154Z,9.95
2022-09-18T02:18:13.995Z,10.02
2022-09-18T02:21:20.652Z,9.97
2022-09-18T02:24:26.283Z,10.08
2022-09-18T02:27:28.334Z,10.07
2022-09-18T02:30:31.870Z,10.09
2022-09-18T02:33:36.685Z,10.17
2022-09-18T02:36:45.525Z,10.11
2022-09-18T02:40:03.698Z,10.12
2022-09-18T02:43:17.792Z,10.08
2022-09-18T02:46:37.840Z,10.20
2022-09-18T02:50:13.598Z,10.13
2022-09-18T02:53:50.267Z,10.25
2022-09-18T02:57:44.122Z,10.30
2022-09-18T03:00:47.632Z,10.26
2022-09-18T03:03:52.693Z,10.13
2022-09-18T03:07:00.990Z,10.27
2022-09-18T03:10:03.630Z,10.29
2022-09-18T03:13:07.018Z,10.14
2022-09-18T03:16:09.327Z,10.35
2022-09-18T03:19:12.111Z,10.14
2022-09-18T03:22:14.246Z,10.25
2022-09-18T03:25:17.520Z,10.36
2022-09-18T03:28:19.868Z,10.13
2022-09-18T03:31:22.112Z,10.34
2022-09-18T03:34:24.210Z,10.22
2022-09-18T03:37:26.470Z,10.14
2022-09-18T03:40:29.385Z,10.21
2022-09-18T03:43:32.321Z,10.20
2022-09-18T03:46:34.469Z,10.13
2022-09-18T03:49:38.268Z,10.27
2022-09-18T03:52:40.347Z,10.25
2022-09-18T03:56:04.359Z,10.29
2022-09-18T03:59:24.617Z,10.26
2022-09-18T04:02:29.383Z,10.30
2022-09-18T04:06:09.800Z,10.27
2022-09-18T04:09:32.093Z,10.35
2022-09-18T04:12:35.154Z,10.43
2022-09-18T04:15:51.129Z,10.41
2022-09-18T04:18:53.253Z,10.17
2022-09-18T04:21:57.267Z,10.29
2022-09-18T04:24:59.427Z,10.32
2022-09-18T04:28:02.342Z,10.33
2022-09-18T04:31:05.466Z,10.42
2022-09-18T04:34:07.621Z,10.28
2022-09-18T04:37:10.749Z,10.30
2022-09-18T04:40:14.206Z,10.30
2022-09-18T04:43:16.883Z,10.19
2022-09-18T04:46:19.985Z,10.27
2022-09-18T04:49:22.371Z,10.31
2022-09-18T04:52:25.071Z,10.12
2022-09-18T04:55:27.735Z,10.42
2022-09-18T04:58:31.031Z,10.27
2022-09-18T05:01:36.413Z,10.35
2022-09-18T05:04:43.978Z,10.42
2022-09-18T05:07:59.663Z,10.35
2022-09-18T05:11:02.203Z,10.37
2022-09-18T05:14:08.099Z,10.27
2022-09-18T05:17:10.774Z,10.42
2022-09-18T05:20:15.034Z,10.27
2022-09-18T05:23:17.809Z,10.19
2022-09-18T05:26:19.877Z,10.04
2022-09-18T05:29:22.090Z,10.24
2022-09-18T05:32:26.046Z,10.15
2022-09-18T05:35:30.646Z,10.24
2022-09-18T05:38:34.147Z,10.23
2022-09-18T05:41:37.526Z,10.35
2022-09-18T05:44:39.659Z,10.26
2022-09-18T05:48:00.851Z,10.31
2022-09-18T05:51:05.257Z,10.29
2022-09-18T05:54:07.462Z,10.36
2022-09-18T05:57:16.050Z,10.41
2022-09-18T06:00:24.790Z,10.52
2022-09-18T06:03:36.162Z,10.40
2022-09-18T06:06:38.352Z,10.48
2022-09-18T06:09:40.468Z,10.62
2022-09-18T06:12:42.728Z,10.44
2022-09-18T06:15:50.292Z,10.48
2022-09-18T06:18:56.847Z,10.61
2022-09-18T06:21:58.917Z,10.63
2022-09-18T06:25:01.546Z,10.69
2022-09-18T06:28:07.791Z,10.51
2022-09-18T06:31:10.426Z,10.64
2022-09-18T06:34:36.636Z,10.49
2022-09-18T06:37:42.058Z,10.55
2022-09-18T06:40:58.093Z,10.62
2022-09-18T06:44:08.698Z,10.45
2022-09-18T06:47:24.147Z,10.64
2022-09-18T06:50:26.320Z,10.61
2022-09-18T06:53:28.640Z,10.62
2022-09-18T06:56:36.000Z,10.65
2022-09-18T06:59:38.598Z,10.71
2022-09-18T07:02:42.217Z,10.71
2022-09-18T07:06:10.339Z,10.75
2022-09-18T07:09:21.994Z,10.85
2022-09-18T07:12:37.622Z,10.79
2022-09-18T07:15:41.702Z,11.09
2022-09-18T07:18:48.349Z,10.87
2022-09-18T07:21:53.927Z,10.82
2022-09-18T07:24:56.043Z,11.07
2022-09-18T07:28:08.233Z,11.04
2022-09-18T07:31:16.698Z,11.19
2022-09-18T07:34:20.032Z,11.10
2022-09-18T07:37:22.343Z,11.14
2022-09-18T07:40:33.858Z,11.35
2022-09-18T07:43:43.771Z,11.43
2022-09-18T07:46:46.044Z,11.58
2022-09-18T07:49:48.270Z,11.66
2022-09-18T07:52:56.461Z,11.70
2022-09-18T07:56:10.021Z,11.90
2022-09-18T07:59:12.635Z,11.83
2022-09-18T08:02:15.272Z,11.86
2022-09-18T08:05:17.602Z,11.52
2022-09-18T08:08:30.095Z,11.55
2022-09-18T08:11:52.690Z,11.86
2022-09-18T08:15:02.486Z,11.87
2022-09-18T08:18:22.865Z,12.05
2022-09-18T08:21:43.289Z,11.70
2022-09-18T08:24:48.019Z,11.84
2022-09-18T08:27:50.449Z,11.99
2022-09-18T08:31:01.936Z,12.05
2022-09-18T08:34:04.229Z,12.03
2022-09-18T08:37:07.055Z,11.94
2022-09-18T08:41:05.817Z,12.13
2022-09-18T08:44:18.456Z,12.00
2022-09-18T08:47:43.380Z,12.30
2022-09-18T08:51:16.949Z,12.38
2022-09-18T08:54:49.292Z,12.30
2022-09-18T08:58:24.604Z,12.07
2022-09-18T09:01:43.378Z,12.67
2022-09-18T09:04:49.489Z,12.70
2022-09-18T09:08:23.239Z,12.58
2022-09-18T09:12:24.296Z,13.20
2022-09-18T09:16:01.582Z,12.94
2022-09-18T09:19:45.231Z,12.82
2022-09-18T09:23:04.164Z,13.00
2022-09-18T09:26:21.809Z,13.25
2022-09-18T09:29:45.042Z,13.52
2022-09-18T09:33:27.947Z,13.32
2022-09-18T09:36:42.305Z,13.34
2022-09-18T09:39:52.698Z,13.50
2022-09-18T09:43:01.216Z,13.34
2022-09-18T09:46:35.807Z,13.34
2022-09-18T09:49:46.652Z,13.56
2022-09-18T09:52:48.920Z,13.78
2022-09-18T09:56:16.143Z,13.75
2022-09-18T09:59:47.863Z,13.73
2022-09-18T10:03:05.144Z,13.48
2022-09-18T10:06:29.695Z,13.89
2022-09-18T10:09:43.743Z,13.46
2022-09-18T10:13:05.390Z,13.46
2022-09-18T10:16:20.328Z,13.60
2022-09-18T10:19:28.540Z,13.27
2022-09-18T10:22:30.934Z,14.14
2022-09-18T10:25:54.204Z,14.15
2022-09-18T10:28:56.926Z,14.07
2022-09-18T10:32:01.070Z,14.19
2022-09-18T10:35:29.182Z,14.17
2022-09-18T10:38:34.359Z,13.98
2022-09-18T10:42:07.170Z,14.01
2022-09-18T10:45:29.133Z,14.19
2022-09-18T10:48:53.146Z,14.00
2022-09-18T10:52:25.302Z,14.05
2022-09-18T10:55:28.367Z,13.88
2022-09-18T10:58:39.189Z,13.48
2022-09-18T11:01:44.658Z,13.75
2022-09-18T11:04:48.105Z,13.10
2022-09-18T11:07:55.055Z,13.35
2022-09-18T11:11:06.862Z,13.87
2022-09-18T11:14:30.184Z,14.07
2022-09-18T11:17:47.280Z,13.78
2022-09-18T11:20:50.030Z,13.76
2022-09-18T11:24:06.927Z,13.90
2022-09-18T11:27:46.187Z,14.13
2022-09-18T11:31:04.112Z,14.47
2022-09-18T11:34:47.181Z,14.17
2022-09-18T11:37:53.093Z,14.36
2022-09-18T11:40:57.523Z,13.98
2022-09-18T11:44:14.007Z,14.12
2022-09-18T11:47:41.264Z,14.63
2022-09-18T11:50:44.260Z,15.24
2022-09-18T11:53:55.426Z,14.75
2022-09-18T11:57:00.807Z,14.78
2022-09-18T12:00:16.234Z,15.92
2022-09-18T12:03:29.046Z,15.16
2022-09-18T12:06:58.799Z,15.01
2022-09-18T12:10:31.486Z,14.28
2022-09-18T12:13:40.023Z,14.61
2022-09-18T12:16:51.496Z,14.59
2022-09-18T12:19:58.561Z,14.94
2022-09-18T12:23:02.791Z,15.23
2022-09-18T12:26:12.476Z,15.29
2022-09-18T12:29:57.186Z,14.87
2022-09-18T12:33:26.623Z,14.74
2022-09-18T12:36:47.326Z,14.84
2022-09-18T12:40:04.201Z,15.29
2022-09-18T12:43:38.075Z,16.12
2022-09-18T12:46:59.886Z,15.30
2022-09-18T12:50:15.682Z,15.49
2022-09-18T12:54:06.959Z,16.03
2022-09-18T12:57:36.907Z,15.46
2022-09-18T13:00:41.163Z,15.67
2022-09-18T13:03:43.246Z,15.17
2022-09-18T13:06:55.407Z,15.67
2022-09-18T13:10:42.760Z,15.74
2022-09-18T13:14:05.720Z,15.66
2022-09-18T13:17:19.918Z,15.72
2022-09-18T13:20:34.439Z,15.17
2022-09-18T13:23:40.770Z,15.58
2022-09-18T13:26:42.909Z,15.17
2022-09-18T13:29:54.090Z,15.26
2022-09-18T13:32:57.761Z,15.13
2022-09-18T13:35:59.866Z,15.33
2022-09-18T13:39:14.829Z,15.08
2022-09-18T13:42:34.167Z,15.48
2022-09-18T13:45:37.975Z,15.27
2022-09-18T13:48:39.931Z,15.37
2022-09-18T13:51:42.084Z,15.89
2022-09-18T13:55:20.126Z,15.47
2022-09-18T13:58:31.707Z,16.30
2022-09-18T14:01:42.989Z,15.95
2022-09-18T14:04:48.475Z,16.12
2022-09-18T14:08:04.307Z,15.98
2022-09-18T14:11:16.255Z,15.43
2022-09-18T14:14:22.887Z,15.01
2022-09-18T14:17:25.798Z,15.25
2022-09-18T14:20:27.898Z,15.45
2022-09-18T14:23:35.890Z,15.11
2022-09-18T14:26:38.549Z,15.25
2022-09-18T14:29:40.871Z,15.53
2022-09-18T14:33:03.659Z,15.91
2022-09-18T14:36:06.481Z,15.89
2022-09-18T14:39:35.807Z,15.52
2022-09-18T14:42:40.136Z,15.52
2022-09-18T14:45:42.272Z,16.27
2022-09-18T14:48:44.363Z,17.16
2022-09-18T14:52:03.186Z,18.00
2022-09-18T14:55:12.211Z,19.70
2022-09-18T14:58:17.927Z,19.52
2022-09-18T15:01:31.604Z,20.50
2022-09-18T15:04:33.693Z,20.96
2022-09-18T15:07:38.166Z,21.88
2022-09-18T15:10:40.335Z,19.57
2022-09-18T15:13:42.443Z,18.23
2022-09-18T15:16:44.739Z,18.22
2022-09-18T15:20:22.731Z,18.40
2022-09-18T15:23:38.875Z,21.08
2022-09-18T15:26:48.256Z,21.41
2022-09-18T15:30:06.751Z,20.91
2022-09-18T15:33:18.815Z,19.59
2022-09-18T15:36:35.480Z,18.03
2022-09-18T15:39:42.509Z,16.89
2022-09-18T15:42:59.180Z,17.07
2022-09-18T15:46:11.857Z,17.90
2022-09-18T15:49:30.659Z,16.59
2022-09-18T15:52:55.116Z,16.41
2022-09-18T15:56:02.202Z,16.42
2022-09-18T15:59:07.252Z,15.89
2022-09-18T16:02:37.750Z,15.64
2022-09-18T16:05:40.556Z,15.73
2022-09-18T16:08:42.670Z,15.77
2022-09-18T16:11:46.141Z,15.70
2022-09-18T16:15:11.251Z,15.09
2022-09-18T16:18:16.209Z,14.96
2022-09-18T16:21:18.670Z,15.06
2022-09-18T16:24:30.867Z,14.92
2022-09-18T16:27:32.901Z,14.76
2022-09-18T16:30:37.315Z,15.01
2022-09-18T16:34:27.495Z,14.56
2022-09-18T16:37:31.000Z,14.98
2022-09-18T16:40:33.262Z,14.92
2022-09-18T16:43:35.876Z,15.14
2022-09-18T16:46:49.638Z,15.08
2022-09-18T16:49:51.786Z,14.28
2022-09-18T16:52:54.037Z,14.32
2022-09-18T16:55:57.360Z,14.35
2022-09-18T16:59:00.975Z,14.18
2022-09-18T17:02:04.508Z,14.78
2022-09-18T17:05:07.697Z,14.42
2022-09-18T17:08:09.867Z,14.30
2022-09-18T17:11:12.018Z,14.41
2022-09-18T17:14:14.066Z,14.58
2022-09-18T17:17:16.305Z,14.52
2022-09-18T17:20:18.934Z,14.62
2022-09-18T17:23:21.023Z,14.63
2022-09-18T17:26:23.316Z,14.29
2022-09-18T17:29:25.500Z,14.58
2022-09-18T17:32:27.546Z,14.27
2022-09-18T17:35:29.655Z,14.28
2022-09-18T17:38:33.891Z,14.24
2022-09-18T17:41:35.992Z,14.20
2022-09-18T17:44:38.074Z,14.19
2022-09-18T17:47:40.127Z,13.73
2022-09-18T17:50:42.163Z,14.01
2022-09-18T17:53:45.764Z,14.12
2022-09-18T17:56:47.859Z,13.87
2022-09-18T17:59:49.907Z,14.11
2022-09-18T18:02:52.107Z,13.96
2022-09-18T18:05:58.255Z,14.04
2022-09-18T18:09:00.710Z,13.86
2022-09-18T18:12:03.410Z,13.37
2022-09-18T18:15:06.127Z,13.52
2022-09-18T18:18:08.237Z,13.37
2022-09-18T18:21:10.750Z,13.38
2022-09-18T18:24:16.938Z,13.68
2022-09-18T18:27:21.070Z,13.59
2022-09-18T18:30:24.155Z,13.83
2022-09-18T18:33:26.221Z,13.44
2022-09-18T18:36:30.551Z,13.53
2022-09-18T18:39:32.668Z,13.52
2022-09-18T18:42:34.702Z,13.35
2022-09-18T18:45:37.499Z,13.33
2022-09-18T18:48:40.736Z,13.23
2022-09-18T18:51:48.126Z,13.72
2022-09-18T18:54:50.207Z,13.67
2022-09-18T18:57:52.730Z,13.59
2022-09-18T19:00:55.544Z,13.28
2022-09-18T19:04:09.354Z,12.86
2022-09-18T19:07:12.001Z,12.25
2022-09-18T19:10:14.992Z,12.58
2022-09-18T19:13:17.307Z,11.69
2022-09-18T19:16:19.839Z,12.01
2022-09-18T19:19:23.704Z,11.52
2022-09-18T19:22:25.813Z,11.56
2022-09-18T19:25:27.990Z,11.65
2022-09-18T19:28:30.787Z,11.60
2022-09-18T19:31:34.133Z,12.13
2022-09-18T19:34:36.289Z,12.11
2022-09-18T19:37:38.355Z,11.82
2022-09-18T19:40:40.569Z,11.33
2022-09-18T19:43:42.700Z,11.00
2022-09-18T19:46:46.259Z,10.90
2022-09-18T19:49:49.847Z,10.91
2022-09-18T19:52:52.072Z,10.95
2022-09-18T19:55:54.294Z,11.23
2022-09-18T19:58:56.362Z,11.08
2022-09-18T20:01:58.491Z,10.96
2022-09-18T20:05:01.993Z,11.33
2022-09-18T20:08:06.410Z,11.10
2022-09-18T20:11:08.790Z,11.75
2022-09-18T20:14:11.208Z,11.58
2022-09-18T20:17:13.605Z,11.75
2022-09-18T20:20:16.542Z,11.49
2022-09-18T20:23:18.962Z,11.81
2022-09-18T20:26:21.021Z,11.84
2022-09-18T20:29:23.104Z,11.73
2022-09-18T20:32:25.178Z,11.68
2022-09-18T20:35:27.218Z,11.94
2022-09-18T20:38:33.037Z,12.07
2022-09-18T20:41:35.726Z,11.93
2022-09-18T20:44:38.197Z,12.00
2022-09-18T20:47:40.342Z,11.63
2022-09-18T20:50:43.231Z,11.51
2022-09-18T20:53:46.493Z,11.25
2022-09-18T20:56:48.596Z,11.29
2022-09-18T20:59:51.161Z,11.25
2022-09-18T21:02:53.411Z,10.95
2022-09-18T21:06:12.768Z,10.53
2022-09-18T21:09:17.671Z,10.58
2022-09-18T21:12:19.818Z,10.89
2022-09-18T21:15:21.847Z,10.85
2022-09-18T21:18:24.013Z,11.28
2022-09-18T21:21:27.482Z,11.38
2022-09-18T21:24:30.735Z,11.43
2022-09-18T21:27:32.787Z,11.42
2022-09-18T21:30:34.851Z,11.36
2022-09-18T21:33:40.730Z,11.46
2022-09-18T21:36:46.022Z,11.45
2022-09-18T21:39:48.161Z,11.35
2022-09-18T21:42:50.698Z,11.32
2022-09-18T21:45:52.752Z,11.20
2022-09-18T21:48:55.924Z,11.34
2022-09-18T21:52:04.331Z,11.07
2022-09-18T21:55:06.906Z,11.19
2022-09-18T21:58:08.999Z,11.27
2022-09-18T22:01:19.644Z,11.67
2022-09-18T22:04:26.197Z,11.57
2022-09-18T22:07:28.990Z,11.50
2022-09-18T22:10:31.127Z,11.37
2022-09-18T22:13:33.258Z,11.13
2022-09-18T22:16:35.556Z,10.78
2022-09-18T22:19:41.306Z,11.27
2022-09-18T22:22:43.993Z,11.51
2022-09-18T22:25:46.075Z,11.83
2022-09-18T22:28:56.223Z,11.69
2022-09-18T22:31:59.544Z,11.44
2022-09-18T22:35:01.675Z,11.40
2022-09-18T22:38:03.778Z,11.52
2022-09-18T22:41:06.810Z,11.50
2022-09-18T22:44:09.348Z,11.62
2022-09-18T22:47:11.429Z,11.63
2022-09-18T22:50:13.564Z,11.80
2022-09-18T22:53:15.688Z,12.08
2022-09-18T22:56:18.611Z,12.17
2022-09-18T22:59:22.512Z,12.13
2022-09-18T23:02:24.697Z,12.12
2022-09-18T23:05:27.183Z,12.13
2022-09-18T23:08:31.867Z,12.17
2022-09-18T23:11:34.582Z,12.12
2022-09-18T23:14:36.703Z,12.20
2022-09-18T23:17:38.840Z,12.10
2022-09-18T23:20:41.010Z,12.08
2022-09-18T23:23:44.198Z,11.88
2022-09-18T23:26:47.879Z,11.84
2022-09-18T23:29:50.631Z,11.97
2022-09-18T23:32:52.727Z,11.83
2022-09-18T23:35:54.985Z,11.77
2022-09-18T23:39:05.219Z,11.65
2022-09-18T23:42:08.880Z,11.50
2022-09-18T23:45:11.253Z,11.50
2022-09-18T23:48:13.302Z,11.44
2022-09-18T23:51:16.176Z,11.21
2022-09-18T23:54:24.017Z,11.46
2022-09-18T23:57:26.793Z,11.87
